createdAt,value
2018-04-16T00:01:24.605Z,65.52
2018-04-16T00:03:52.086Z,65.77
2018-04-16T00:06:19.580Z,66.58
2018-04-16T00:08:47.069Z,66.76
2018-04-16T00:11:14.549Z,66.56
2018-04-16T00:13:42.040Z,67.10
2018-04-16T00:16:09.514Z,67.24
2018-04-16T00:18:37.005Z,67.92
2018-04-16T00:21:04.502Z,68.17
2018-04-16T00:23:31.999Z,68.13
2018-04-16T00:25:59.479Z,68.68
2018-04-16T00:28:26.965Z,68.33
2018-04-16T00:30:54.459Z,69.43
2018-04-16T00:36:30.232Z,69.48
2018-04-16T00:39:03.444Z,69.24
2018-04-16T00:41:36.617Z,69.24
2018-04-16T00:47:15.386Z,69.11
2018-04-16T00:49:48.641Z,69.16
2018-04-16T00:52:21.854Z,69.20
2018-04-16T00:54:54.915Z,69.51
2018-04-16T00:57:28.177Z,69.64
2018-04-16T01:00:01.359Z,69.33
2018-04-16T01:02:34.542Z,69.83
2018-04-16T01:05:07.764Z,69.41
2018-04-16T01:07:40.885Z,69.56
2018-04-16T01:10:14.109Z,69.96
2018-04-16T01:12:47.123Z,69.82
2018-04-16T01:15:20.216Z,69.99
2018-04-16T01:17:53.351Z,69.72
2018-04-16T01:20:26.611Z,69.54
2018-04-16T01:22:59.660Z,69.91
2018-04-16T01:25:32.900Z,69.96
2018-04-16T01:28:06.026Z,70.08
2018-04-16T01:30:39.090Z,70.27
2018-04-16T01:33:12.269Z,70.00
2018-04-16T01:35:45.605Z,70.27
2018-04-16T01:38:18.910Z,70.34
2018-04-16T01:40:52.046Z,70.55
2018-04-16T01:46:27.914Z,70.27
2018-04-16T01:49:01.122Z,70.54
2018-04-16T01:51:34.357Z,70.28
2018-04-16T01:54:07.539Z,70.27
2018-04-16T01:56:40.635Z,70.49
2018-04-16T01:59:13.718Z,70.07
2018-04-16T02:04:51.694Z,70.90
2018-04-16T02:07:25.028Z,70.70
2018-04-16T02:09:58.197Z,70.30
2018-04-16T02:12:31.413Z,70.42
2018-04-16T02:15:04.509Z,70.36
2018-04-16T02:17:37.703Z,70.04
2018-04-16T02:20:10.847Z,70.23
2018-04-16T02:22:44.085Z,69.99
2018-04-16T02:25:17.260Z,69.94
2018-04-16T02:27:50.502Z,70.64
2018-04-16T02:33:24.560Z,71.48
2018-04-16T02:35:57.810Z,71.65
2018-04-16T02:38:30.971Z,71.73
2018-04-16T02:41:04.163Z,71.11
2018-04-16T02:43:37.208Z,71.85
2018-04-16T02:46:10.405Z,71.64
2018-04-16T02:48:43.600Z,70.75
2018-04-16T02:51:16.842Z,70.34
2018-04-16T02:53:50.051Z,69.98
2018-04-16T02:56:23.229Z,70.17
2018-04-16T02:58:56.369Z,70.46
2018-04-16T03:01:29.481Z,69.96
2018-04-16T03:04:02.680Z,69.59
2018-04-16T03:06:35.868Z,69.71
2018-04-16T03:09:08.984Z,69.60
2018-04-16T03:11:42.125Z,69.72
2018-04-16T03:14:15.322Z,69.88
2018-04-16T03:16:48.558Z,70.54
2018-04-16T03:19:21.719Z,71.80
2018-04-16T03:21:54.729Z,73.81
2018-04-16T03:24:27.830Z,75.64
2018-04-16T03:27:00.935Z,77.93
2018-04-16T03:29:34.062Z,79.51
2018-04-16T03:32:07.210Z,80.44
2018-04-16T03:34:40.507Z,81.52
2018-04-16T03:37:13.557Z,81.35
2018-04-16T03:39:46.836Z,81.59
2018-04-16T03:42:20.539Z,81.76
2018-04-16T03:44:53.740Z,82.02
2018-04-16T03:47:26.924Z,82.14
2018-04-16T03:53:06.210Z,82.59
2018-04-16T03:55:39.282Z,83.30
2018-04-16T03:58:06.773Z,83.36
2018-04-16T04:00:34.278Z,83.44
2018-04-16T04:03:01.779Z,83.24
2018-04-16T04:05:29.265Z,83.13
2018-04-16T04:07:56.839Z,83.22
2018-04-16T04:10:24.342Z,83.27
2018-04-16T04:12:51.925Z,83.72
2018-04-16T04:15:19.415Z,83.80
2018-04-16T04:17:46.923Z,83.94
2018-04-16T04:20:14.596Z,84.26
2018-04-16T04:22:54.016Z,83.25
2018-04-16T04:25:33.431Z,85.84
2018-04-16T04:28:12.775Z,82.09
2018-04-16T04:30:40.280Z,82.79
2018-04-16T04:33:07.789Z,82.87
2018-04-16T04:35:35.332Z,81.59
2018-04-16T04:38:02.862Z,81.98
2018-04-16T04:40:30.350Z,82.11
2018-04-16T04:42:57.926Z,82.03
2018-04-16T04:45:25.525Z,83.10
2018-04-16T04:47:53.030Z,77.56
2018-04-16T04:50:20.563Z,72.33
2018-04-16T04:52:48.331Z,74.29
2018-04-16T04:55:15.870Z,72.98
2018-04-16T04:57:43.429Z,71.33
2018-04-16T05:00:10.938Z,73.17
2018-04-16T05:02:38.415Z,72.78
2018-04-16T05:05:05.917Z,72.93
2018-04-16T05:07:33.424Z,73.68
2018-04-16T05:10:00.923Z,70.59
2018-04-16T05:12:28.417Z,68.37
2018-04-16T05:14:55.999Z,67.29
2018-04-16T05:17:23.585Z,63.56
2018-04-16T05:19:51.096Z,63.64
2018-04-16T05:22:18.590Z,63.75
2018-04-16T05:24:46.088Z,64.40
2018-04-16T05:27:13.585Z,64.06
2018-04-16T05:29:41.132Z,64.22
2018-04-16T05:32:08.639Z,66.00
2018-04-16T05:34:36.133Z,66.00
2018-04-16T05:37:03.648Z,65.95
2018-04-16T05:39:31.235Z,64.79
2018-04-16T05:41:58.728Z,64.93
2018-04-16T05:44:26.245Z,64.56
2018-04-16T05:46:53.729Z,66.30
2018-04-16T05:49:21.254Z,66.78
2018-04-16T05:51:48.723Z,67.48
2018-04-16T05:54:16.254Z,66.67
2018-04-16T05:56:43.738Z,67.45
2018-04-16T05:59:11.219Z,65.51
2018-04-16T06:01:38.696Z,63.82
2018-04-16T06:04:06.369Z,63.96
2018-04-16T06:06:33.955Z,61.70
2018-04-16T06:09:01.440Z,60.32
2018-04-16T06:11:28.947Z,58.74
2018-04-16T06:13:56.477Z,58.55
2018-04-16T06:16:23.999Z,60.93
2018-04-16T06:18:51.703Z,63.60
2018-04-16T06:21:19.208Z,63.79
2018-04-16T06:23:46.689Z,62.58
2018-04-16T06:26:14.201Z,63.21
2018-04-16T06:28:41.707Z,62.80
2018-04-16T06:31:09.204Z,61.25
2018-04-16T06:33:36.717Z,60.60
2018-04-16T06:36:04.410Z,61.88
2018-04-16T06:38:31.893Z,61.80
2018-04-16T06:40:59.397Z,65.08
2018-04-16T06:43:26.890Z,63.17
2018-04-16T06:45:54.387Z,59.86
2018-04-16T06:48:21.954Z,60.84
2018-04-16T06:50:49.452Z,58.56
2018-04-16T06:53:16.953Z,59.26
2018-04-16T06:55:44.576Z,60.48
2018-04-16T06:58:12.064Z,58.00
2018-04-16T07:00:39.614Z,58.62
2018-04-16T07:03:07.117Z,58.79
2018-04-16T07:05:34.620Z,58.21
2018-04-16T07:08:02.126Z,57.51
2018-04-16T07:10:29.637Z,56.07
2018-04-16T07:12:57.162Z,57.69
2018-04-16T07:15:24.678Z,57.06
2018-04-16T07:17:52.271Z,59.36
2018-04-16T07:20:19.772Z,58.00
2018-04-16T07:22:47.287Z,55.12
2018-04-16T07:25:14.855Z,55.95
2018-04-16T07:27:42.357Z,56.98
2018-04-16T07:30:09.894Z,56.55
2018-04-16T07:32:37.388Z,54.80
2018-04-16T07:35:04.871Z,54.88
2018-04-16T07:37:32.367Z,54.91
2018-04-16T07:39:59.867Z,56.06
2018-04-16T07:42:27.357Z,53.88
2018-04-16T07:44:54.824Z,55.14
2018-04-16T07:47:22.379Z,56.40
2018-04-16T07:49:49.863Z,53.88
2018-04-16T07:52:17.354Z,55.02
2018-04-16T07:54:44.967Z,54.11
2018-04-16T07:57:12.453Z,55.55
2018-04-16T07:59:39.941Z,53.13
2018-04-16T08:02:07.421Z,52.09
2018-04-16T08:04:34.954Z,53.58
2018-04-16T08:07:02.456Z,53.67
2018-04-16T08:09:29.943Z,52.87
2018-04-16T08:11:57.450Z,52.56
2018-04-16T08:14:24.941Z,54.18
2018-04-16T08:16:52.412Z,54.06
2018-04-16T08:19:19.978Z,54.98
2018-04-16T08:21:47.479Z,52.57
2018-04-16T08:24:15.031Z,55.14
2018-04-16T08:26:42.528Z,53.99
2018-04-16T08:29:10.017Z,54.96
2018-04-16T08:31:37.505Z,53.28
2018-04-16T08:34:05.041Z,54.58
2018-04-16T08:36:32.554Z,54.44
2018-04-16T08:39:00.036Z,52.16
2018-04-16T08:41:27.519Z,50.97
2018-04-16T08:43:55.000Z,50.06
2018-04-16T08:46:22.532Z,50.90
2018-04-16T08:48:50.019Z,51.24
2018-04-16T08:51:17.537Z,50.50
2018-04-16T08:53:45.024Z,48.46
2018-04-16T08:56:12.691Z,47.69
2018-04-16T08:58:40.212Z,45.09
2018-04-16T09:01:07.689Z,45.84
2018-04-16T09:03:35.205Z,44.83
2018-04-16T09:06:02.707Z,45.92
2018-04-16T09:08:30.209Z,44.22
2018-04-16T09:10:57.710Z,43.08
2018-04-16T09:13:25.204Z,45.42
2018-04-16T09:15:52.684Z,44.38
2018-04-16T09:18:20.174Z,47.40
2018-04-16T09:20:47.683Z,45.61
2018-04-16T09:23:15.180Z,43.20
2018-04-16T09:25:42.774Z,43.37
2018-04-16T09:28:10.278Z,39.91
2018-04-16T09:30:37.797Z,43.61
2018-04-16T09:33:05.343Z,42.81
2018-04-16T09:35:32.820Z,38.39
2018-04-16T09:38:00.301Z,41.47
2018-04-16T09:40:27.803Z,42.36
2018-04-16T09:42:55.333Z,38.33
2018-04-16T09:45:22.856Z,38.36
2018-04-16T09:47:50.356Z,40.47
2018-04-16T09:50:17.863Z,44.12
2018-04-16T09:52:45.927Z,39.44
2018-04-16T09:55:13.504Z,38.74
2018-04-16T09:57:41.001Z,41.12
2018-04-16T10:00:08.589Z,38.64
2018-04-16T10:02:36.087Z,35.35
2018-04-16T10:05:03.750Z,33.59
2018-04-16T10:07:31.226Z,34.39
2018-04-16T10:09:58.760Z,36.30
2018-04-16T10:12:26.255Z,36.84
2018-04-16T10:14:53.739Z,38.07
2018-04-16T10:17:21.228Z,38.27
2018-04-16T10:19:49.197Z,37.82
2018-04-16T10:22:16.765Z,34.04
2018-04-16T10:24:44.267Z,31.17
2018-04-16T10:27:11.756Z,33.65
2018-04-16T10:29:39.258Z,32.74
2018-04-16T10:32:06.754Z,35.31
2018-04-16T10:34:34.513Z,29.80
2018-04-16T10:37:02.015Z,33.03
2018-04-16T10:39:29.488Z,35.98
2018-04-16T10:41:56.984Z,33.32
2018-04-16T10:44:24.541Z,31.81
2018-04-16T10:46:52.025Z,33.49
2018-04-16T10:49:19.512Z,33.98
2018-04-16T10:51:47.006Z,35.27
2018-04-16T10:54:14.513Z,37.30
2018-04-16T10:56:42.005Z,35.15
2018-04-16T10:59:09.465Z,33.45
2018-04-16T11:01:37.007Z,33.82
2018-04-16T11:04:04.661Z,30.00
2018-04-16T11:06:32.354Z,33.26
2018-04-16T11:08:59.857Z,33.30
2018-04-16T11:11:27.560Z,27.44
2018-04-16T11:13:55.058Z,30.84
2018-04-16T11:16:22.568Z,30.08
2018-04-16T11:18:50.071Z,32.06
2018-04-16T11:21:17.605Z,31.70
2018-04-16T11:23:45.159Z,34.15
2018-04-16T11:26:12.660Z,33.82
2018-04-16T11:28:40.185Z,31.48
2018-04-16T11:31:07.727Z,30.18
2018-04-16T11:33:35.225Z,25.72
2018-04-16T11:36:02.774Z,25.36
2018-04-16T11:38:30.280Z,23.28
2018-04-16T11:40:57.780Z,21.60
2018-04-16T11:43:25.249Z,24.00
2018-04-16T11:45:52.734Z,19.38
2018-04-16T11:48:20.225Z,26.03
2018-04-16T11:50:47.729Z,22.95
2018-04-16T11:53:15.330Z,22.06
2018-04-16T11:55:42.964Z,18.78
2018-04-16T11:58:10.443Z,16.23
2018-04-16T12:00:37.980Z,18.34
2018-04-16T12:03:05.474Z,15.50
2018-04-16T12:05:32.985Z,25.28
2018-04-16T12:08:00.471Z,26.64
2018-04-16T12:10:27.985Z,22.59
2018-04-16T12:12:55.479Z,21.33
2018-04-16T12:15:22.969Z,14.33
2018-04-16T12:17:50.540Z,14.22
2018-04-16T12:20:18.087Z,16.47
2018-04-16T12:22:45.582Z,14.23
2018-04-16T12:25:13.077Z,16.68
2018-04-16T12:27:40.585Z,15.19
2018-04-16T12:30:08.096Z,15.13
2018-04-16T12:32:35.586Z,12.86
2018-04-16T12:35:03.116Z,13.30
2018-04-16T12:37:30.599Z,14.14
2018-04-16T12:39:58.086Z,17.36
2018-04-16T12:42:25.575Z,19.87
2018-04-16T12:44:53.061Z,22.08
2018-04-16T12:47:20.549Z,22.93
2018-04-16T12:49:48.044Z,19.06
2018-04-16T12:52:15.538Z,19.85
2018-04-16T12:54:43.060Z,17.97
2018-04-16T12:57:10.548Z,17.24
2018-04-16T12:59:38.078Z,17.35
2018-04-16T13:02:05.567Z,21.89
2018-04-16T13:04:33.096Z,22.10
2018-04-16T13:07:00.566Z,25.93
2018-04-16T13:09:28.070Z,27.62
2018-04-16T13:11:55.549Z,26.97
2018-04-16T13:14:23.033Z,27.02
2018-04-16T13:16:50.528Z,27.38
2018-04-16T13:19:18.120Z,30.44
2018-04-16T13:21:45.649Z,30.93
2018-04-16T13:24:13.141Z,31.73
2018-04-16T13:26:40.839Z,33.33
2018-04-16T13:29:08.334Z,36.88
2018-04-16T13:31:35.820Z,34.75
2018-04-16T13:34:03.310Z,33.39
2018-04-16T13:36:30.861Z,32.43
2018-04-16T13:38:58.506Z,36.43
2018-04-16T13:41:25.991Z,31.12
2018-04-16T13:43:53.487Z,31.80
2018-04-16T13:46:20.985Z,35.47
2018-04-16T13:48:48.474Z,32.97
2018-04-16T13:51:15.976Z,31.70
2018-04-16T13:53:43.503Z,30.70
2018-04-16T13:56:10.991Z,29.93
2018-04-16T13:58:38.472Z,29.57
2018-04-16T14:01:05.957Z,28.15
2018-04-16T14:03:33.427Z,27.70
2018-04-16T14:06:00.927Z,31.60
2018-04-16T14:08:28.407Z,26.47
2018-04-16T14:10:55.880Z,28.84
2018-04-16T14:13:23.389Z,22.99
2018-04-16T14:15:53.140Z,18.51
2018-04-16T14:18:20.691Z,14.88
2018-04-16T14:20:48.511Z,15.49
2018-04-16T14:23:16.280Z,12.24
2018-04-16T14:25:44.676Z,12.39
2018-04-16T14:28:12.329Z,14.76
2018-04-16T14:30:42.685Z,14.37
2018-04-16T14:33:11.395Z,14.22
2018-04-16T14:35:43.767Z,11.33
2018-04-16T14:38:12.512Z,11.60
2018-04-16T14:40:40.709Z,11.10
2018-04-16T14:43:08.199Z,13.23
2018-04-16T14:45:35.701Z,12.39
2018-04-16T14:48:03.199Z,13.81
2018-04-16T14:50:30.669Z,11.58
2018-04-16T14:52:58.151Z,16.39
2018-04-16T14:55:25.655Z,16.94
2018-04-16T14:57:53.147Z,16.08
2018-04-16T15:00:20.627Z,19.37
2018-04-16T15:02:48.089Z,18.04
2018-04-16T15:05:16.819Z,19.26
2018-04-16T15:07:44.306Z,16.84
2018-04-16T15:10:11.793Z,18.88
2018-04-16T15:12:39.288Z,24.41
2018-04-16T15:15:07.849Z,21.14
2018-04-16T15:17:35.335Z,25.38
2018-04-16T15:20:05.708Z,28.66
2018-04-16T15:22:33.286Z,25.40
2018-04-16T15:25:00.776Z,26.67
2018-04-16T15:27:28.286Z,29.92
2018-04-16T15:29:55.768Z,27.70
2018-04-16T15:32:23.373Z,27.64
2018-04-16T15:34:50.865Z,33.58
2018-04-16T15:37:18.393Z,31.41
2018-04-16T15:39:46.047Z,25.71
2018-04-16T15:42:13.875Z,32.39
2018-04-16T15:44:41.400Z,29.09
2018-04-16T15:47:09.120Z,24.45
2018-04-16T15:49:36.689Z,26.98
2018-04-16T15:52:04.198Z,26.30
2018-04-16T15:54:31.693Z,23.29
2018-04-16T15:57:02.169Z,22.36
2018-04-16T15:59:29.673Z,21.86
2018-04-16T16:01:57.251Z,23.82
2018-04-16T16:04:24.947Z,26.62
2018-04-16T16:06:52.448Z,25.20
2018-04-16T16:09:20.016Z,27.43
2018-04-16T16:11:47.664Z,29.41
2018-04-16T16:14:15.277Z,28.26
2018-04-16T16:16:42.760Z,27.27
2018-04-16T16:19:10.511Z,23.77
2018-04-16T16:21:38.106Z,27.44
2018-04-16T16:24:05.625Z,24.47
2018-04-16T16:26:33.150Z,23.84
2018-04-16T16:29:00.636Z,25.40
2018-04-16T16:31:28.335Z,27.35
2018-04-16T16:33:55.958Z,28.36
2018-04-16T16:36:23.476Z,30.67
2018-04-16T16:38:51.804Z,32.47
2018-04-16T16:41:19.270Z,29.58
2018-04-16T16:43:46.875Z,26.62
2018-04-16T16:46:14.546Z,24.93
2018-04-16T16:48:42.116Z,26.41
2018-04-16T16:51:09.729Z,25.57
2018-04-16T16:53:37.204Z,26.54
2018-04-16T16:56:04.749Z,27.10
2018-04-16T16:58:32.227Z,26.33
2018-04-16T17:00:59.713Z,30.63
2018-04-16T17:03:27.528Z,27.45
2018-04-16T17:05:55.031Z,33.46
2018-04-16T17:08:22.541Z,29.17
2018-04-16T17:10:50.018Z,33.20
2018-04-16T17:13:17.635Z,31.05
2018-04-16T17:15:45.153Z,38.08
2018-04-16T17:18:12.635Z,32.51
2018-04-16T17:20:40.160Z,37.39
2018-04-16T17:23:07.651Z,36.27
2018-04-16T17:25:35.195Z,30.74
2018-04-16T17:28:02.665Z,31.74
2018-04-16T17:30:30.170Z,31.24
2018-04-16T17:32:57.706Z,32.28
2018-04-16T17:35:25.170Z,32.86
2018-04-16T17:37:52.645Z,34.61
2018-04-16T17:40:20.142Z,36.18
2018-04-16T17:42:47.637Z,36.64
2018-04-16T17:45:15.136Z,36.00
2018-04-16T17:47:42.637Z,35.96
2018-04-16T17:50:10.116Z,36.08
2018-04-16T17:52:37.672Z,36.39
2018-04-16T17:55:05.272Z,36.82
2018-04-16T17:57:32.897Z,37.10
2018-04-16T18:00:00.447Z,39.10
2018-04-16T18:02:28.041Z,40.24
2018-04-16T18:04:56.037Z,41.66
2018-04-16T18:07:23.717Z,42.01
2018-04-16T18:09:51.214Z,42.00
2018-04-16T18:18:06.578Z,40.71
2018-04-16T18:20:34.088Z,40.85
2018-04-16T18:23:01.925Z,41.58
2018-04-16T18:25:29.792Z,41.44
2018-04-16T18:27:57.376Z,41.87
2018-04-16T18:30:25.009Z,41.49
2018-04-16T18:32:52.635Z,51.73
2018-04-16T18:35:20.154Z,47.23
2018-04-16T18:37:47.936Z,45.43
2018-04-16T18:40:16.340Z,46.09
2018-04-16T18:42:44.386Z,45.72
2018-04-16T18:45:11.887Z,43.76
2018-04-16T18:47:39.425Z,44.90
2018-04-16T18:50:06.929Z,46.94
2018-04-16T18:52:34.643Z,44.64
2018-04-16T18:55:02.142Z,43.56
2018-04-16T18:57:29.686Z,44.66
2018-04-16T18:59:57.264Z,45.82
2018-04-16T19:02:24.773Z,45.10
2018-04-16T19:04:52.290Z,38.83
2018-04-16T19:07:19.776Z,36.31
2018-04-16T19:09:47.258Z,39.04
2018-04-16T19:12:14.872Z,39.52
2018-04-16T19:14:42.387Z,40.05
2018-04-16T19:17:09.977Z,40.99
2018-04-16T19:19:37.816Z,42.79
2018-04-16T19:22:05.409Z,42.93
2018-04-16T19:24:32.998Z,43.13
2018-04-16T19:27:06.309Z,43.45
2018-04-16T19:29:35.111Z,44.39
2018-04-16T19:32:03.376Z,44.58
2018-04-16T19:34:36.451Z,46.60
2018-04-16T19:37:03.996Z,46.59
2018-04-16T19:39:31.495Z,47.29
2018-04-16T19:42:04.581Z,54.56
2018-04-16T19:44:32.152Z,48.65
2018-04-16T19:46:59.658Z,49.05
2018-04-16T19:49:32.973Z,49.51
2018-04-16T19:52:00.633Z,50.06
2018-04-16T19:54:28.188Z,50.60
2018-04-16T19:57:01.243Z,51.24
2018-04-16T19:59:29.780Z,51.70
2018-04-16T20:02:02.857Z,52.15
2018-04-16T20:04:30.348Z,51.48
2018-04-16T20:06:57.870Z,51.12
2018-04-16T20:09:25.379Z,51.58
2018-04-16T20:11:52.966Z,52.92
2018-04-16T20:14:20.466Z,53.27
2018-04-16T20:16:47.952Z,53.41
2018-04-16T20:19:15.453Z,53.85
2018-04-16T20:21:43.957Z,57.00
2018-04-16T20:24:11.493Z,56.58
2018-04-16T20:26:39.186Z,53.72
2018-04-16T20:29:06.800Z,52.70
2018-04-16T20:31:34.377Z,55.26
2018-04-16T20:34:02.140Z,56.54
2018-04-16T20:36:29.699Z,53.67
2018-04-16T20:38:58.932Z,53.31
2018-04-16T20:41:26.644Z,53.67
2018-04-16T20:43:54.452Z,52.22
2018-04-16T20:46:21.954Z,53.16
2018-04-16T20:48:49.565Z,53.97
2018-04-16T20:51:17.062Z,54.77
2018-04-16T20:53:44.899Z,55.47
2018-04-16T20:56:15.643Z,55.90
2018-04-16T20:58:53.691Z,56.58
2018-04-16T21:01:22.843Z,56.40
2018-04-16T21:03:51.298Z,56.35
2018-04-16T21:06:22.517Z,55.98
2018-04-16T21:08:50.008Z,54.03
2018-04-16T21:11:17.697Z,53.42
2018-04-16T21:13:46.467Z,53.20
2018-04-16T21:16:16.356Z,51.36
2018-04-16T21:18:43.914Z,51.27
2018-04-16T21:21:11.523Z,51.68
2018-04-16T21:23:39.060Z,51.73
2018-04-16T21:28:49.052Z,51.11
2018-04-16T21:31:16.589Z,50.60
2018-04-16T21:33:44.169Z,50.25
2018-04-16T21:36:11.679Z,50.79
2018-04-16T21:38:48.346Z,50.84
2018-04-16T21:41:15.853Z,50.50
2018-04-16T21:43:51.763Z,51.34
2018-04-16T21:46:21.973Z,49.38
2018-04-16T21:48:49.526Z,48.11
2018-04-16T21:51:17.148Z,48.57
2018-04-16T21:53:44.713Z,48.03
2018-04-16T21:56:12.423Z,48.17
2018-04-16T21:58:39.928Z,48.53
2018-04-16T22:01:07.476Z,47.72
2018-04-16T22:03:35.021Z,47.48
2018-04-16T22:06:02.694Z,46.90
2018-04-16T22:08:30.203Z,46.99
2018-04-16T22:10:57.706Z,47.06
2018-04-16T22:13:25.414Z,47.27
2018-04-16T22:15:52.951Z,48.10
2018-04-16T22:18:20.767Z,47.84
2018-04-16T22:20:48.389Z,48.43
2018-04-16T22:23:15.861Z,48.27
2018-04-16T22:25:43.373Z,48.30
2018-04-16T22:28:10.874Z,49.56
2018-04-16T22:30:38.368Z,50.43
2018-04-16T22:33:05.868Z,50.88
2018-04-16T22:35:33.400Z,51.30
2018-04-16T22:38:00.926Z,52.63
2018-04-16T22:40:28.486Z,53.17
2018-04-16T22:42:56.050Z,53.77
2018-04-16T22:45:23.853Z,54.32
2018-04-16T22:47:51.338Z,54.80
2018-04-16T22:50:18.873Z,56.13
2018-04-16T22:52:46.493Z,56.70
2018-04-16T22:55:14.029Z,57.43
2018-04-16T22:57:41.813Z,58.23
2018-04-16T23:00:09.587Z,59.72
2018-04-16T23:02:37.074Z,60.25
2018-04-16T23:05:04.570Z,61.16
2018-04-16T23:07:32.081Z,61.77
2018-04-16T23:09:59.592Z,61.76
2018-04-16T23:12:27.085Z,62.11
2018-04-16T23:14:54.683Z,61.96
2018-04-16T23:17:22.181Z,63.08
2018-04-16T23:19:49.662Z,62.72
2018-04-16T23:22:17.169Z,62.54
2018-04-16T23:24:44.713Z,61.97
2018-04-16T23:27:12.255Z,61.79
2018-04-16T23:29:39.778Z,61.49
2018-04-16T23:32:07.280Z,61.63
2018-04-16T23:34:34.860Z,61.86
2018-04-16T23:37:02.376Z,62.25
2018-04-16T23:39:29.927Z,62.52
2018-04-16T23:41:57.464Z,62.05
2018-04-16T23:44:25.003Z,61.73
2018-04-16T23:46:52.489Z,61.97
2018-04-16T23:49:20.055Z,62.16
2018-04-16T23:51:47.619Z,62.11
2018-04-16T23:54:15.112Z,62.61
2018-04-16T23:56:42.777Z,63.24
2018-04-16T23:59:10.302Z,63.90
